createdAt,value
2022-08-22T00:01:49.131Z,15.90
2022-08-22T00:02:48.340Z,19.50
2022-08-22T00:03:01.922Z,18.00
2022-08-22T00:03:12.645Z,16.50
2022-08-22T00:04:49.133Z,15.84
2022-08-22T00:07:35.946Z,15.80
2022-08-22T00:10:12.899Z,15.74
2022-08-22T00:13:22.988Z,15.70
2022-08-22T00:16:22.391Z,15.80
2022-08-22T00:19:04.186Z,15.80
2022-08-22T00:22:03.594Z,15.78
2022-08-22T00:24:48.971Z,15.74
2022-08-22T00:27:29.433Z,15.70
2022-08-22T00:30:12.254Z,15.70
2022-08-22T00:32:53.024Z,15.70
2022-08-22T00:35:33.591Z,15.70
2022-08-22T00:38:32.695Z,15.70
2022-08-22T00:41:07.533Z,15.70
2022-08-22T00:44:36.519Z,15.60
2022-08-22T00:47:36.756Z,15.50
2022-08-22T00:50:53.459Z,15.50
2022-08-22T00:53:55.735Z,15.46
2022-08-22T00:56:53.098Z,15.40
2022-08-22T00:59:41.653Z,15.30
2022-08-22T01:02:38.185Z,15.20
2022-08-22T01:05:56.434Z,15.20
2022-08-22T01:09:02.292Z,15.30
2022-08-22T01:12:03.338Z,15.20
2022-08-22T01:14:56.396Z,15.20
2022-08-22T01:17:59.215Z,15.30
2022-08-22T01:20:53.777Z,15.30
2022-08-22T01:24:03.119Z,15.30
2022-08-22T01:26:59.760Z,15.20
2022-08-22T01:29:58.655Z,15.12
2022-08-22T01:33:07.689Z,15.20
2022-08-22T01:35:45.079Z,15.10
2022-08-22T01:38:38.444Z,15.10
2022-08-22T01:41:44.507Z,15.10
2022-08-22T01:44:54.871Z,15.10
2022-08-22T01:47:39.738Z,15.00
2022-08-22T01:50:34.332Z,15.00
2022-08-22T01:53:25.349Z,14.90
2022-08-22T01:56:14.305Z,14.90
2022-08-22T01:59:11.005Z,14.90
2022-08-22T02:02:02.162Z,14.94
2022-08-22T02:05:03.310Z,15.00
2022-08-22T02:08:11.028Z,15.00
2022-08-22T02:11:06.432Z,14.90
2022-08-22T02:14:03.581Z,14.90
2022-08-22T02:16:41.626Z,15.00
2022-08-22T02:19:16.008Z,15.00
2022-08-22T02:22:06.505Z,15.00
2022-08-22T02:24:46.661Z,15.00
2022-08-22T02:27:39.002Z,15.00
2022-08-22T02:30:17.523Z,15.00
2022-08-22T02:33:12.923Z,15.00
2022-08-22T02:35:58.823Z,14.90
2022-08-22T02:39:11.235Z,14.80
2022-08-22T02:41:57.637Z,14.90
2022-08-22T02:44:41.479Z,14.90
2022-08-22T02:47:40.462Z,14.90
2022-08-22T02:50:36.507Z,14.80
2022-08-22T02:53:40.111Z,14.78
2022-08-22T02:56:28.476Z,14.70
2022-08-22T02:59:22.950Z,14.70
2022-08-22T03:01:52.047Z,14.70
2022-08-22T03:04:33.132Z,14.70
2022-08-22T03:07:17.889Z,14.80
2022-08-22T03:10:00.196Z,14.70
2022-08-22T03:12:49.260Z,14.70
2022-08-22T03:15:49.599Z,14.66
2022-08-22T03:18:21.859Z,14.62
2022-08-22T03:21:09.797Z,14.60
2022-08-22T03:23:53.332Z,14.70
2022-08-22T03:27:02.467Z,14.70
2022-08-22T03:29:44.571Z,14.70
2022-08-22T03:32:21.576Z,14.80
2022-08-22T03:35:10.063Z,14.80
2022-08-22T03:37:44.494Z,14.90
2022-08-22T03:40:54.376Z,14.80
2022-08-22T03:44:19.899Z,14.80
2022-08-22T03:47:26.062Z,14.80
2022-08-22T03:50:46.054Z,14.80
2022-08-22T03:53:20.575Z,14.80
2022-08-22T03:56:45.401Z,14.70
2022-08-22T03:59:54.001Z,14.60
2022-08-22T04:03:05.296Z,14.50
2022-08-22T04:06:00.086Z,14.50
2022-08-22T04:08:45.566Z,14.50
2022-08-22T04:11:49.684Z,14.50
2022-08-22T04:14:31.177Z,14.54
2022-08-22T04:17:31.608Z,14.60
2022-08-22T04:20:33.268Z,14.60
2022-08-22T04:23:40.425Z,14.60
2022-08-22T04:26:21.737Z,14.68
2022-08-22T04:29:03.427Z,14.70
2022-08-22T04:31:48.191Z,14.70
2022-08-22T04:34:37.974Z,14.70
2022-08-22T04:37:51.011Z,14.76
2022-08-22T04:41:12.837Z,14.80
2022-08-22T04:44:11.144Z,14.80
2022-08-22T04:46:47.790Z,14.70
2022-08-22T04:49:34.498Z,14.70
2022-08-22T04:52:29.567Z,14.80
2022-08-22T04:55:30.546Z,14.80
2022-08-22T04:58:24.321Z,14.80
2022-08-22T05:01:19.688Z,14.86
2022-08-22T05:04:09.006Z,15.00
2022-08-22T05:06:54.032Z,15.00
2022-08-22T05:09:29.724Z,15.00
2022-08-22T05:12:09.528Z,15.00
2022-08-22T05:14:54.951Z,15.00
2022-08-22T05:17:28.816Z,15.10
2022-08-22T05:20:03.669Z,15.20
2022-08-22T05:22:41.089Z,15.30
2022-08-22T05:25:33.936Z,15.34
2022-08-22T05:28:25.971Z,15.40
2022-08-22T05:30:55.944Z,15.50
2022-08-22T05:33:37.373Z,15.50
2022-08-22T05:36:14.606Z,15.60
2022-08-22T05:38:59.751Z,15.70
2022-08-22T05:41:39.642Z,15.80
2022-08-22T05:44:20.151Z,15.90
2022-08-22T05:47:36.860Z,16.00
2022-08-22T05:50:16.095Z,16.10
2022-08-22T05:53:17.242Z,16.20
2022-08-22T05:56:02.211Z,16.30
2022-08-22T05:58:40.215Z,16.40
2022-08-22T06:01:52.895Z,16.40
2022-08-22T06:04:51.536Z,16.32
2022-08-22T06:07:32.395Z,16.32
2022-08-22T06:10:14.082Z,16.40
2022-08-22T06:12:52.404Z,16.30
2022-08-22T06:15:47.231Z,16.30
2022-08-22T06:18:23.012Z,16.40
2022-08-22T06:20:54.827Z,16.56
2022-08-22T06:23:57.804Z,16.70
2022-08-22T06:26:36.014Z,16.80
2022-08-22T06:29:07.642Z,16.80
2022-08-22T06:31:47.878Z,16.90
2022-08-22T06:34:26.550Z,16.90
2022-08-22T06:36:57.885Z,17.00
2022-08-22T06:39:31.499Z,17.00
2022-08-22T06:42:17.799Z,17.10
2022-08-22T06:44:55.234Z,17.30
2022-08-22T06:47:37.191Z,17.40
2022-08-22T06:50:15.400Z,17.50
2022-08-22T06:53:15.830Z,17.60
2022-08-22T06:55:57.487Z,17.68
2022-08-22T06:58:42.492Z,17.80
2022-08-22T07:01:36.031Z,18.00
2022-08-22T07:04:09.299Z,18.20
2022-08-22T07:06:47.600Z,18.32
2022-08-22T07:09:37.763Z,18.50
2022-08-22T07:12:24.457Z,18.74
2022-08-22T07:14:59.400Z,18.90
2022-08-22T07:17:33.166Z,19.00
2022-08-22T07:20:33.741Z,19.10
2022-08-22T07:23:13.112Z,19.40
2022-08-22T07:26:15.440Z,19.50
2022-08-22T07:29:12.303Z,19.76
2022-08-22T07:31:50.327Z,20.00
2022-08-22T07:35:06.409Z,20.10
2022-08-22T07:37:47.380Z,20.30
2022-08-22T07:40:39.006Z,20.30
2022-08-22T07:43:28.276Z,20.50
2022-08-22T07:46:18.671Z,20.58
2022-08-22T07:49:08.595Z,20.64
2022-08-22T07:51:49.937Z,20.70
2022-08-22T07:54:40.744Z,20.84
2022-08-22T07:57:36.754Z,21.00
2022-08-22T08:00:15.029Z,21.10
2022-08-22T08:02:52.402Z,21.04
2022-08-22T08:05:24.323Z,21.10
2022-08-22T08:07:56.398Z,21.20
2022-08-22T08:10:39.840Z,21.20
2022-08-22T08:13:21.835Z,21.20
2022-08-22T08:15:51.750Z,21.28
2022-08-22T08:18:26.096Z,21.30
2022-08-22T08:21:04.147Z,21.40
2022-08-22T08:23:40.693Z,21.50
2022-08-22T08:26:21.314Z,21.40
2022-08-22T08:28:54.097Z,21.50
2022-08-22T08:31:23.604Z,21.60
2022-08-22T08:34:09.084Z,21.56
2022-08-22T08:37:15.557Z,21.60
2022-08-22T08:39:51.061Z,21.80
2022-08-22T08:43:31.685Z,22.00
2022-08-22T08:46:53.093Z,22.12
2022-08-22T08:49:42.148Z,22.30
2022-08-22T08:52:24.408Z,22.40
2022-08-22T08:55:10.515Z,22.44
2022-08-22T08:58:27.383Z,22.50
2022-08-22T09:01:11.622Z,22.50
2022-08-22T09:04:17.607Z,22.50
2022-08-22T09:07:01.684Z,22.50
2022-08-22T09:10:12.314Z,22.50
2022-08-22T09:13:12.323Z,22.50
2022-08-22T09:16:04.420Z,22.50
2022-08-22T09:19:17.499Z,22.50
2022-08-22T09:22:50.230Z,22.50
2022-08-22T09:25:38.656Z,22.70
2022-08-22T09:28:20.637Z,22.74
2022-08-22T09:31:16.842Z,22.80
2022-08-22T09:34:33.068Z,22.88
2022-08-22T09:37:25.718Z,22.80
2022-08-22T09:40:29.518Z,22.66
2022-08-22T09:43:24.744Z,22.60
2022-08-22T09:46:29.434Z,22.60
2022-08-22T09:49:25.905Z,22.50
2022-08-22T09:52:47.534Z,22.40
2022-08-22T09:55:50.735Z,22.44
2022-08-22T09:58:27.938Z,22.42
2022-08-22T10:01:23.985Z,22.50
2022-08-22T10:04:31.037Z,22.60
2022-08-22T10:07:20.711Z,22.76
2022-08-22T10:10:17.558Z,22.70
2022-08-22T10:13:30.895Z,22.60
2022-08-22T10:16:43.002Z,22.50
2022-08-22T10:19:44.661Z,22.46
2022-08-22T10:22:17.937Z,22.40
2022-08-22T10:25:25.106Z,22.36
2022-08-22T10:28:10.763Z,22.40
2022-08-22T10:30:57.337Z,22.40
2022-08-22T10:33:41.585Z,22.30
2022-08-22T10:36:27.065Z,22.30
2022-08-22T10:38:58.348Z,22.40
2022-08-22T10:41:55.466Z,22.40
2022-08-22T10:44:35.110Z,22.40
2022-08-22T10:47:52.952Z,22.40
2022-08-22T10:50:36.994Z,22.30
2022-08-22T10:53:35.448Z,22.22
2022-08-22T10:56:43.909Z,22.30
2022-08-22T10:59:39.524Z,22.30
2022-08-22T11:02:27.865Z,22.40
2022-08-22T11:05:30.826Z,22.40
2022-08-22T11:08:29.752Z,22.40
2022-08-22T11:11:35.848Z,22.40
2022-08-22T11:14:30.308Z,22.40
2022-08-22T11:17:35.586Z,22.50
2022-08-22T11:20:34.813Z,22.56
2022-08-22T11:24:00.456Z,22.60
2022-08-22T11:26:47.328Z,22.50
2022-08-22T11:29:34.773Z,22.40
2022-08-22T11:32:29.925Z,22.40
2022-08-22T11:35:12.484Z,22.50
2022-08-22T11:38:04.879Z,22.50
2022-08-22T11:40:56.402Z,22.60
2022-08-22T11:43:30.733Z,22.60
2022-08-22T11:46:20.265Z,22.60
2022-08-22T11:49:16.736Z,22.60
2022-08-22T11:52:11.535Z,22.60
2022-08-22T11:54:59.212Z,22.60
2022-08-22T11:58:15.477Z,22.60
2022-08-22T12:01:42.281Z,22.60
2022-08-22T12:04:33.893Z,22.70
2022-08-22T12:07:18.617Z,22.80
2022-08-22T12:10:04.599Z,22.80
2022-08-22T12:12:48.646Z,22.80
2022-08-22T12:15:29.729Z,22.90
2022-08-22T12:18:44.081Z,22.80
2022-08-22T12:21:42.937Z,22.70
2022-08-22T12:24:48.118Z,22.68
2022-08-22T12:27:49.720Z,22.50
2022-08-22T12:30:30.651Z,22.50
2022-08-22T12:33:23.607Z,22.44
2022-08-22T12:37:11.452Z,22.40
2022-08-22T12:40:01.990Z,22.40
2022-08-22T12:42:46.172Z,22.40
2022-08-22T12:45:21.235Z,22.50
2022-08-22T12:48:18.492Z,22.50
2022-08-22T12:51:22.919Z,22.60
2022-08-22T12:54:33.997Z,22.60
2022-08-22T12:57:23.980Z,22.60
2022-08-22T13:00:27.048Z,22.60
2022-08-22T13:03:05.390Z,22.70
2022-08-22T13:05:40.581Z,22.80
2022-08-22T13:08:20.247Z,22.80
2022-08-22T13:11:01.664Z,22.80
2022-08-22T13:13:56.679Z,22.80
2022-08-22T13:16:40.374Z,22.80
2022-08-22T13:19:32.417Z,22.80
2022-08-22T13:22:09.702Z,22.84
2022-08-22T13:25:06.334Z,22.82
2022-08-22T13:27:51.359Z,22.80
2022-08-22T13:30:26.850Z,22.80
2022-08-22T13:33:04.835Z,22.80
2022-08-22T13:35:54.767Z,22.80
2022-08-22T13:39:02.761Z,22.80
2022-08-22T13:41:44.398Z,22.80
2022-08-22T13:44:21.252Z,22.76
2022-08-22T13:47:13.171Z,22.70
2022-08-22T13:49:45.507Z,22.78
2022-08-22T13:52:52.319Z,22.70
2022-08-22T13:55:49.064Z,22.70
2022-08-22T13:58:42.447Z,22.60
2022-08-22T14:02:01.079Z,22.60
2022-08-22T14:04:40.032Z,22.60
2022-08-22T14:07:09.231Z,22.60
2022-08-22T14:10:14.980Z,22.60
2022-08-22T14:13:10.094Z,22.60
2022-08-22T14:15:45.836Z,22.60
2022-08-22T14:18:36.753Z,22.52
2022-08-22T14:21:41.487Z,22.50
2022-08-22T14:24:25.878Z,22.54
2022-08-22T14:27:10.021Z,22.50
2022-08-22T14:29:58.644Z,22.50
2022-08-22T14:32:30.894Z,22.50
2022-08-22T14:35:35.325Z,22.60
2022-08-22T14:38:39.826Z,22.54
2022-08-22T14:41:19.790Z,22.50
2022-08-22T14:44:12.364Z,22.48
2022-08-22T14:46:56.817Z,22.46
2022-08-22T14:49:33.599Z,22.40
2022-08-22T14:52:19.954Z,22.40
2022-08-22T14:54:51.053Z,22.40
2022-08-22T14:57:21.162Z,22.40
2022-08-22T14:59:52.564Z,22.30
2022-08-22T15:02:31.437Z,22.30
2022-08-22T15:05:13.780Z,22.20
2022-08-22T15:07:43.088Z,22.20
2022-08-22T15:10:21.682Z,22.10
2022-08-22T15:12:55.513Z,22.10
2022-08-22T15:15:33.377Z,22.10
2022-08-22T15:18:38.929Z,22.00
2022-08-22T15:21:24.461Z,22.00
2022-08-22T15:23:59.949Z,22.00
2022-08-22T15:26:50.128Z,22.00
2022-08-22T15:29:26.638Z,22.00
2022-08-22T15:32:03.290Z,22.00
2022-08-22T15:35:06.489Z,22.00
2022-08-22T15:37:56.270Z,21.90
2022-08-22T15:40:45.742Z,21.90
2022-08-22T15:43:22.463Z,21.90
2022-08-22T15:46:18.089Z,21.90
2022-08-22T15:49:20.513Z,21.98
2022-08-22T15:52:01.282Z,21.98
2022-08-22T15:54:54.243Z,21.90
2022-08-22T15:57:35.196Z,21.82
2022-08-22T16:00:28.097Z,21.80
2022-08-22T16:03:25.735Z,21.72
2022-08-22T16:06:12.277Z,21.70
2022-08-22T16:08:55.537Z,21.66
2022-08-22T16:11:35.508Z,21.50
2022-08-22T16:14:46.030Z,21.50
2022-08-22T16:17:29.829Z,21.40
2022-08-22T16:20:12.031Z,21.34
2022-08-22T16:22:58.881Z,21.20
2022-08-22T16:25:46.322Z,21.20
2022-08-22T16:28:58.312Z,21.20
2022-08-22T16:31:46.551Z,21.18
2022-08-22T16:34:18.590Z,21.20
2022-08-22T16:37:09.801Z,21.20
2022-08-22T16:40:05.467Z,21.28
2022-08-22T16:42:49.363Z,21.30
2022-08-22T16:45:39.502Z,21.20
2022-08-22T16:48:40.454Z,21.20
2022-08-22T16:51:22.298Z,21.12
2022-08-22T16:54:09.921Z,21.10
2022-08-22T16:58:05.268Z,21.10
2022-08-22T17:01:16.024Z,21.10
2022-08-22T17:04:04.608Z,21.04
2022-08-22T17:07:05.417Z,21.10
2022-08-22T17:10:25.294Z,21.00
2022-08-22T17:13:27.774Z,20.90
2022-08-22T17:16:43.872Z,20.90
2022-08-22T17:19:39.145Z,20.90
2022-08-22T17:22:54.463Z,21.00
2022-08-22T17:25:54.688Z,20.98
2022-08-22T17:28:41.663Z,20.90
2022-08-22T17:31:45.721Z,20.90
2022-08-22T17:34:58.752Z,20.80
2022-08-22T17:37:52.708Z,20.78
2022-08-22T17:40:54.630Z,20.70
2022-08-22T17:43:55.740Z,20.60
2022-08-22T17:47:20.038Z,20.46
2022-08-22T17:50:06.539Z,20.30
2022-08-22T17:52:45.455Z,20.28
2022-08-22T17:56:00.335Z,20.20
2022-08-22T17:58:43.505Z,20.20
2022-08-22T18:01:46.539Z,20.20
2022-08-22T18:04:48.314Z,20.10
2022-08-22T18:07:32.877Z,20.04
2022-08-22T18:10:40.180Z,19.90
2022-08-22T18:13:42.521Z,19.90
2022-08-22T18:16:42.871Z,19.82
2022-08-22T18:19:42.586Z,19.80
2022-08-22T18:22:39.337Z,19.90
2022-08-22T18:25:20.101Z,19.90
2022-08-22T18:27:51.758Z,19.90
2022-08-22T18:30:30.069Z,19.90
2022-08-22T18:33:19.237Z,19.80
2022-08-22T18:36:20.387Z,19.70
2022-08-22T18:39:08.241Z,19.60
2022-08-22T18:41:47.842Z,19.60
2022-08-22T18:44:26.274Z,19.50
2022-08-22T18:47:00.189Z,19.40
2022-08-22T18:49:31.743Z,19.30
2022-08-22T18:52:07.496Z,19.20
2022-08-22T18:55:33.118Z,19.20
2022-08-22T18:58:38.576Z,19.10
2022-08-22T19:01:44.631Z,19.10
2022-08-22T19:04:41.477Z,19.10
2022-08-22T19:07:25.658Z,19.10
2022-08-22T19:10:27.092Z,19.10
2022-08-22T19:13:19.322Z,19.10
2022-08-22T19:16:12.891Z,19.20
2022-08-22T19:18:44.856Z,19.28
2022-08-22T19:21:37.895Z,19.30
2022-08-22T19:24:36.809Z,19.30
2022-08-22T19:27:12.664Z,19.32
2022-08-22T19:29:42.068Z,19.32
2022-08-22T19:32:45.063Z,19.30
2022-08-22T19:35:40.882Z,19.40
2022-08-22T19:38:10.867Z,19.30
2022-08-22T19:40:45.385Z,19.40
2022-08-22T19:43:41.247Z,19.50
2022-08-22T19:46:13.646Z,19.50
2022-08-22T19:48:53.060Z,19.50
2022-08-22T19:51:23.745Z,19.50
2022-08-22T19:54:02.619Z,19.50
2022-08-22T19:56:50.867Z,19.50
2022-08-22T20:00:18.535Z,19.50
2022-08-22T20:02:56.758Z,19.50
2022-08-22T20:06:05.228Z,19.50
2022-08-22T20:08:57.200Z,19.44
2022-08-22T20:11:44.317Z,19.40
2022-08-22T20:14:30.472Z,19.30
2022-08-22T20:16:59.713Z,19.30
2022-08-22T20:22:39.583Z,19.40
2022-08-22T20:25:44.226Z,19.30
2022-08-22T20:28:47.715Z,19.20
2022-08-22T20:31:27.890Z,19.10
2022-08-22T20:34:04.392Z,19.10
2022-08-22T20:36:33.338Z,19.10
2022-08-22T20:39:18.815Z,19.14
2022-08-22T20:41:56.450Z,19.18
2022-08-22T20:44:40.273Z,19.02
2022-08-22T20:47:24.285Z,19.00
2022-08-22T20:49:57.886Z,19.00
2022-08-22T20:52:33.308Z,18.98
2022-08-22T20:55:21.491Z,18.96
2022-08-22T20:58:19.464Z,19.00
2022-08-22T21:00:52.763Z,19.00
2022-08-22T21:03:42.950Z,19.00
2022-08-22T21:06:20.273Z,19.00
2022-08-22T21:09:12.990Z,19.00
2022-08-22T21:11:51.284Z,19.04
2022-08-22T21:14:26.900Z,19.10
2022-08-22T21:16:55.638Z,19.00
2022-08-22T21:19:29.906Z,19.00
2022-08-22T21:22:17.650Z,19.00
2022-08-22T21:24:46.593Z,19.00
2022-08-22T21:27:25.621Z,19.10
2022-08-22T21:29:55.126Z,19.10
2022-08-22T21:32:28.112Z,19.10
2022-08-22T21:34:56.973Z,19.10
2022-08-22T21:37:40.732Z,19.10
2022-08-22T21:40:28.968Z,19.10
2022-08-22T21:43:30.053Z,19.10
2022-08-22T21:45:58.822Z,19.10
2022-08-22T21:48:59.462Z,19.10
2022-08-22T21:51:46.637Z,19.20
2022-08-22T21:54:30.725Z,19.20
2022-08-22T21:57:09.137Z,19.20
2022-08-22T21:59:51.955Z,19.20
2022-08-22T22:02:42.169Z,19.20
2022-08-22T22:05:18.517Z,19.20
2022-08-22T22:07:48.184Z,19.26
2022-08-22T22:10:20.266Z,19.24
2022-08-22T22:12:53.636Z,19.20
2022-08-22T22:15:26.929Z,19.20
2022-08-22T22:17:55.877Z,19.20
2022-08-22T22:20:27.793Z,19.20
2022-08-22T22:22:57.037Z,19.20
2022-08-22T22:25:39.042Z,19.20
2022-08-22T22:28:25.319Z,19.20
2022-08-22T22:30:54.124Z,19.12
2022-08-22T22:33:34.074Z,19.12
2022-08-22T22:36:11.191Z,19.10
2022-08-22T22:38:41.178Z,19.10
2022-08-22T22:41:09.994Z,19.20
2022-08-22T22:43:38.965Z,19.20
2022-08-22T22:46:07.646Z,19.22
2022-08-22T22:48:36.336Z,19.20
2022-08-22T22:51:13.073Z,19.20
2022-08-22T22:53:43.655Z,19.20
2022-08-22T22:56:21.732Z,19.30
2022-08-22T22:58:58.921Z,19.34
2022-08-22T23:01:29.876Z,19.38
2022-08-22T23:04:03.274Z,19.40
2022-08-22T23:06:35.353Z,19.40
2022-08-22T23:09:04.639Z,19.30
2022-08-22T23:11:33.543Z,19.30
2022-08-22T23:14:03.018Z,19.30
2022-08-22T23:16:36.995Z,19.34
2022-08-22T23:19:15.088Z,19.40
2022-08-22T23:21:45.894Z,19.36
2022-08-22T23:24:15.776Z,19.40
2022-08-22T23:26:44.799Z,19.32
2022-08-22T23:29:14.081Z,19.32
2022-08-22T23:32:04.649Z,19.40
2022-08-22T23:34:37.477Z,19.40
2022-08-22T23:37:08.423Z,19.40
2022-08-22T23:39:38.734Z,19.40
2022-08-22T23:42:08.983Z,19.44
2022-08-22T23:44:40.344Z,19.42
2022-08-22T23:47:11.231Z,19.42
2022-08-22T23:49:41.920Z,19.50
2022-08-22T23:52:12.897Z,19.50
2022-08-22T23:54:42.235Z,19.42
2022-08-22T23:57:11.638Z,19.42
2022-08-22T23:59:47.920Z,19.40
